createdAt,value
2017-07-08T00:01:05.250Z,22.00
2017-07-08T00:03:32.693Z,21.90
2017-07-08T00:06:00.149Z,21.70
2017-07-08T00:08:28.358Z,21.60
2017-07-08T00:10:55.785Z,21.60
2017-07-08T00:13:23.217Z,21.70
2017-07-08T00:15:50.653Z,21.70
2017-07-08T00:18:18.858Z,21.60
2017-07-08T00:20:46.322Z,21.60
2017-07-08T00:23:13.780Z,21.70
2017-07-08T00:25:41.986Z,21.70
2017-07-08T00:28:09.409Z,21.70
2017-07-08T00:30:36.852Z,21.80
2017-07-08T00:33:04.273Z,21.80
2017-07-08T00:35:31.712Z,21.80
2017-07-08T00:37:59.925Z,21.90
2017-07-08T00:40:27.369Z,21.80
2017-07-08T00:42:54.811Z,21.90
2017-07-08T00:45:22.261Z,21.90
2017-07-08T00:47:49.729Z,22.00
2017-07-08T00:50:17.169Z,22.10
2017-07-08T00:52:44.606Z,22.10
2017-07-08T00:55:12.041Z,22.20
2017-07-08T00:57:39.476Z,22.20
2017-07-08T01:00:06.914Z,22.10
2017-07-08T01:02:34.356Z,22.10
2017-07-08T01:05:01.793Z,22.10
2017-07-08T01:07:29.230Z,22.00
2017-07-08T01:09:56.670Z,21.90
2017-07-08T01:12:24.157Z,21.90
2017-07-08T01:14:51.691Z,21.80
2017-07-08T01:17:19.123Z,21.90
2017-07-08T01:19:46.574Z,21.80
2017-07-08T01:22:14.000Z,21.80
2017-07-08T01:24:41.438Z,21.90
2017-07-08T01:27:08.869Z,21.90
2017-07-08T01:29:36.309Z,21.80
2017-07-08T01:32:03.750Z,21.80
2017-07-08T01:34:31.213Z,21.80
2017-07-08T01:36:58.666Z,21.80
2017-07-08T01:39:26.096Z,21.80
2017-07-08T01:41:53.537Z,21.90
2017-07-08T01:44:20.976Z,21.80
2017-07-08T01:46:48.417Z,21.60
2017-07-08T01:49:15.858Z,21.60
2017-07-08T01:51:43.356Z,21.50
2017-07-08T01:54:11.567Z,21.60
2017-07-08T01:56:39.008Z,21.50
2017-07-08T01:59:06.441Z,21.50
2017-07-08T02:01:33.881Z,21.50
2017-07-08T02:04:01.312Z,21.50
2017-07-08T02:06:28.757Z,21.50
2017-07-08T02:08:56.193Z,21.40
2017-07-08T02:11:23.697Z,21.40
2017-07-08T02:13:51.241Z,21.40
2017-07-08T02:16:18.676Z,21.40
2017-07-08T02:18:46.121Z,21.40
2017-07-08T02:21:13.556Z,21.50
2017-07-08T02:23:40.988Z,21.50
2017-07-08T02:26:08.436Z,21.50
2017-07-08T02:28:35.879Z,21.50
2017-07-08T02:31:04.120Z,21.60
2017-07-08T02:33:31.553Z,21.50
2017-07-08T02:35:58.988Z,21.60
2017-07-08T02:38:26.425Z,21.60
2017-07-08T02:40:53.869Z,21.60
2017-07-08T02:43:21.295Z,21.60
2017-07-08T02:45:49.502Z,21.60
2017-07-08T02:48:16.933Z,21.60
2017-07-08T02:50:44.512Z,21.60
2017-07-08T02:53:11.956Z,21.50
2017-07-08T02:55:39.407Z,21.40
2017-07-08T02:58:06.844Z,21.20
2017-07-08T03:00:34.272Z,21.10
2017-07-08T03:03:01.723Z,21.20
2017-07-08T03:05:29.149Z,21.20
2017-07-08T03:07:56.585Z,21.10
2017-07-08T03:10:24.028Z,21.10
2017-07-08T03:12:51.466Z,21.10
2017-07-08T03:15:18.914Z,21.10
2017-07-08T03:17:46.365Z,21.10
2017-07-08T03:20:13.828Z,21.10
2017-07-08T03:22:41.262Z,21.20
2017-07-08T03:25:08.733Z,21.20
2017-07-08T03:27:36.937Z,21.40
2017-07-08T03:30:04.368Z,21.30
2017-07-08T03:32:31.813Z,21.40
2017-07-08T03:34:59.245Z,21.40
2017-07-08T03:37:26.714Z,21.50
2017-07-08T03:39:54.137Z,21.60
2017-07-08T03:42:21.568Z,21.60
2017-07-08T03:44:49.026Z,21.60
2017-07-08T03:47:16.441Z,21.70
2017-07-08T03:49:44.649Z,21.60
2017-07-08T03:52:12.086Z,21.60
2017-07-08T03:54:39.537Z,21.60
2017-07-08T03:57:06.971Z,21.50
2017-07-08T03:59:34.435Z,21.40
2017-07-08T04:02:01.872Z,21.40
2017-07-08T04:04:29.351Z,21.30
2017-07-08T04:06:57.549Z,21.10
2017-07-08T04:09:24.985Z,21.10
2017-07-08T04:11:52.436Z,21.10
2017-07-08T04:14:19.874Z,21.10
2017-07-08T04:16:47.317Z,20.90
2017-07-08T04:19:14.762Z,20.90
2017-07-08T04:21:42.193Z,20.90
2017-07-08T04:24:09.642Z,20.90
2017-07-08T04:26:37.121Z,20.90
2017-07-08T04:29:04.567Z,20.80
2017-07-08T04:31:32.013Z,20.70
2017-07-08T04:33:59.448Z,20.70
2017-07-08T04:36:26.894Z,20.80
2017-07-08T04:38:54.330Z,20.90
2017-07-08T04:41:21.780Z,21.00
2017-07-08T04:43:49.213Z,21.10
2017-07-08T04:46:16.653Z,21.20
2017-07-08T04:48:44.090Z,21.30
2017-07-08T04:51:11.534Z,21.40
2017-07-08T04:53:38.975Z,21.40
2017-07-08T04:56:06.418Z,21.60
2017-07-08T04:58:33.849Z,21.70
2017-07-08T05:01:01.281Z,21.80
2017-07-08T05:03:28.725Z,22.00
2017-07-08T05:05:56.172Z,22.20
2017-07-08T05:08:23.600Z,22.40
2017-07-08T05:10:51.040Z,22.50
2017-07-08T05:13:18.515Z,22.70
2017-07-08T05:15:45.955Z,22.90
2017-07-08T05:18:13.421Z,22.90
2017-07-08T05:20:40.874Z,23.10
2017-07-08T05:23:08.309Z,23.10
2017-07-08T05:25:35.732Z,23.10
2017-07-08T05:28:03.177Z,23.10
2017-07-08T05:30:30.610Z,23.20
2017-07-08T05:32:58.058Z,23.30
2017-07-08T05:35:25.488Z,23.30
2017-07-08T05:37:52.942Z,23.30
2017-07-08T05:40:20.396Z,23.40
2017-07-08T05:42:47.837Z,23.50
2017-07-08T05:45:15.285Z,23.60
2017-07-08T05:47:42.737Z,23.70
2017-07-08T05:50:10.169Z,23.80
2017-07-08T05:52:37.637Z,24.00
2017-07-08T05:55:05.849Z,24.30
2017-07-08T05:57:33.280Z,24.30
2017-07-08T06:00:00.756Z,24.30
2017-07-08T06:02:28.200Z,24.40
2017-07-08T06:04:55.723Z,24.50
2017-07-08T06:07:23.175Z,24.60
2017-07-08T06:09:50.601Z,24.80
2017-07-08T06:12:18.041Z,24.80
2017-07-08T06:14:45.477Z,25.00
2017-07-08T06:17:12.912Z,25.20
2017-07-08T06:19:40.571Z,25.60
2017-07-08T06:22:08.014Z,26.20
2017-07-08T06:24:35.467Z,27.00
2017-07-08T06:27:02.909Z,27.50
2017-07-08T06:29:30.387Z,27.40
2017-07-08T06:31:57.820Z,27.90
2017-07-08T06:34:25.253Z,28.40
2017-07-08T06:36:52.781Z,29.10
2017-07-08T06:39:20.325Z,29.70
2017-07-08T06:41:47.771Z,30.10
2017-07-08T06:44:15.213Z,30.40
2017-07-08T06:46:42.640Z,30.80
2017-07-08T06:49:10.077Z,31.10
2017-07-08T06:51:37.513Z,31.40
2017-07-08T06:54:04.944Z,31.70
2017-07-08T06:56:32.454Z,31.80
2017-07-08T06:58:59.914Z,31.80
2017-07-08T07:01:27.362Z,32.10
2017-07-08T07:03:55.560Z,32.60
2017-07-08T07:06:23.004Z,32.60
2017-07-08T07:08:50.454Z,32.80
2017-07-08T07:11:17.884Z,32.90
2017-07-08T07:13:45.359Z,32.90
2017-07-08T07:16:12.813Z,33.10
2017-07-08T07:18:40.333Z,33.30
2017-07-08T07:21:07.796Z,33.30
2017-07-08T07:23:35.256Z,33.00
2017-07-08T07:26:02.686Z,32.90
2017-07-08T07:28:30.130Z,33.00
2017-07-08T07:30:57.561Z,33.00
2017-07-08T07:33:25.005Z,32.80
2017-07-08T07:35:52.445Z,32.70
2017-07-08T07:38:19.895Z,32.40
2017-07-08T07:40:47.344Z,32.10
2017-07-08T07:43:14.761Z,31.80
2017-07-08T07:45:42.201Z,31.60
2017-07-08T07:48:09.742Z,31.60
2017-07-08T07:50:37.173Z,31.80
2017-07-08T07:53:04.618Z,31.90
2017-07-08T07:55:32.106Z,32.10
2017-07-08T07:57:59.646Z,32.40
2017-07-08T08:00:27.100Z,32.70
2017-07-08T08:02:55.350Z,33.20
2017-07-08T08:05:22.777Z,33.10
2017-07-08T08:07:50.204Z,33.20
2017-07-08T08:10:17.645Z,33.20
2017-07-08T08:12:45.132Z,33.40
2017-07-08T08:15:13.337Z,33.90
2017-07-08T08:17:40.768Z,33.90
2017-07-08T08:20:08.200Z,33.70
2017-07-08T08:22:35.628Z,33.80
2017-07-08T08:25:03.832Z,33.40
2017-07-08T08:27:31.276Z,33.40
2017-07-08T08:29:58.705Z,33.50
2017-07-08T08:32:26.196Z,33.20
2017-07-08T08:34:53.735Z,33.40
2017-07-08T08:37:21.173Z,33.50
2017-07-08T08:39:48.729Z,33.50
2017-07-08T08:42:16.161Z,33.80
2017-07-08T08:44:43.608Z,34.20
2017-07-08T08:47:11.045Z,34.30
2017-07-08T08:49:38.501Z,33.80
2017-07-08T08:52:05.952Z,33.90
2017-07-08T08:54:33.397Z,34.10
2017-07-08T08:57:01.597Z,34.10
2017-07-08T08:59:29.036Z,34.10
2017-07-08T09:01:56.465Z,33.80
2017-07-08T09:04:23.931Z,33.60
2017-07-08T09:06:51.508Z,33.80
2017-07-08T09:09:18.940Z,34.00
2017-07-08T09:11:46.376Z,34.50
2017-07-08T09:14:13.809Z,34.70
2017-07-08T09:16:41.253Z,35.20
2017-07-08T09:19:08.681Z,35.60
2017-07-08T09:21:36.197Z,36.00
2017-07-08T09:24:03.641Z,36.40
2017-07-08T09:26:31.841Z,36.90
2017-07-08T09:28:59.284Z,36.80
2017-07-08T09:31:26.719Z,36.80
2017-07-08T09:33:54.154Z,36.80
2017-07-08T09:36:21.616Z,36.20
2017-07-08T09:38:49.066Z,36.50
2017-07-08T09:41:16.512Z,36.50
2017-07-08T09:43:43.943Z,36.50
2017-07-08T09:46:11.369Z,36.80
2017-07-08T09:48:38.815Z,37.20
2017-07-08T09:51:06.249Z,37.00
2017-07-08T09:53:33.696Z,37.50
2017-07-08T09:56:01.135Z,37.70
2017-07-08T09:58:28.570Z,37.70
2017-07-08T10:00:56.005Z,38.10
2017-07-08T10:03:23.481Z,38.60
2017-07-08T10:05:50.924Z,38.70
2017-07-08T10:08:18.357Z,38.80
2017-07-08T10:10:45.805Z,39.00
2017-07-08T10:13:13.237Z,38.70
2017-07-08T10:15:40.721Z,38.70
2017-07-08T10:18:08.167Z,38.90
2017-07-08T10:20:35.589Z,39.00
2017-07-08T10:23:03.027Z,39.00
2017-07-08T10:25:30.465Z,38.90
2017-07-08T10:27:57.892Z,38.60
2017-07-08T10:30:25.381Z,38.80
2017-07-08T10:32:52.932Z,38.70
2017-07-08T10:35:20.380Z,38.60
2017-07-08T10:37:48.581Z,38.60
2017-07-08T10:40:16.013Z,38.60
2017-07-08T10:42:43.457Z,38.50
2017-07-08T10:45:10.964Z,38.20
2017-07-08T10:47:38.413Z,38.30
2017-07-08T10:50:06.604Z,38.20
2017-07-08T10:52:34.111Z,38.20
2017-07-08T10:55:01.557Z,38.20
2017-07-08T10:57:29.062Z,37.80
2017-07-08T10:59:56.498Z,37.10
2017-07-08T11:02:23.929Z,36.60
2017-07-08T11:04:51.389Z,35.90
2017-07-08T11:07:18.823Z,35.40
2017-07-08T11:09:46.274Z,35.00
2017-07-08T11:12:13.710Z,34.60
2017-07-08T11:14:41.141Z,34.30
2017-07-08T11:17:08.596Z,34.10
2017-07-08T11:19:36.024Z,33.80
2017-07-08T11:22:03.460Z,33.50
2017-07-08T11:24:30.897Z,33.40
2017-07-08T11:26:58.337Z,33.30
2017-07-08T11:29:25.760Z,33.10
2017-07-08T11:31:55.099Z,32.60
2017-07-08T11:34:22.536Z,32.60
2017-07-08T11:36:49.978Z,32.60
2017-07-08T11:39:17.417Z,32.30
2017-07-08T11:41:44.859Z,32.20
2017-07-08T11:44:12.297Z,32.20
2017-07-08T11:46:39.757Z,32.10
2017-07-08T11:49:07.329Z,32.20
2017-07-08T11:51:34.772Z,32.20
2017-07-08T11:54:02.336Z,32.30
2017-07-08T11:56:30.577Z,32.20
2017-07-08T11:58:58.020Z,32.20
2017-07-08T12:01:25.452Z,32.20
2017-07-08T12:03:52.884Z,32.30
2017-07-08T12:06:20.329Z,32.40
2017-07-08T12:08:47.760Z,32.40
2017-07-08T12:11:15.197Z,32.40
2017-07-08T12:13:42.645Z,32.50
2017-07-08T12:16:10.085Z,32.70
2017-07-08T12:18:37.527Z,32.80
2017-07-08T12:21:04.952Z,33.10
2017-07-08T12:23:32.408Z,33.30
2017-07-08T12:25:59.917Z,33.40
2017-07-08T12:28:28.226Z,33.70
2017-07-08T12:30:55.648Z,33.70
2017-07-08T12:33:23.081Z,33.80
2017-07-08T12:35:50.521Z,33.80
2017-07-08T12:38:17.964Z,33.50
2017-07-08T12:40:45.399Z,33.50
2017-07-08T12:43:13.637Z,33.20
2017-07-08T12:45:41.082Z,33.20
2017-07-08T12:48:08.520Z,33.00
2017-07-08T12:50:36.060Z,33.00
2017-07-08T12:53:03.497Z,32.90
2017-07-08T12:55:30.943Z,32.80
2017-07-08T12:57:58.377Z,32.50
2017-07-08T13:00:26.610Z,32.40
2017-07-08T13:02:54.144Z,32.10
2017-07-08T13:05:21.576Z,31.60
2017-07-08T13:07:49.184Z,31.30
2017-07-08T13:10:16.729Z,31.00
2017-07-08T13:12:44.168Z,30.70
2017-07-08T13:15:11.589Z,30.40
2017-07-08T13:17:39.025Z,30.20
2017-07-08T13:20:06.477Z,30.10
2017-07-08T13:22:33.906Z,29.90
2017-07-08T13:25:01.345Z,29.70
2017-07-08T13:27:28.776Z,29.20
2017-07-08T13:29:56.225Z,28.50
2017-07-08T13:32:23.653Z,28.10
2017-07-08T13:34:51.158Z,27.40
2017-07-08T13:37:18.596Z,26.70
2017-07-08T13:39:46.031Z,26.10
2017-07-08T13:42:13.469Z,26.40
2017-07-08T13:44:40.981Z,26.70
2017-07-08T13:47:08.419Z,26.70
2017-07-08T13:49:35.846Z,26.90
2017-07-08T13:52:03.284Z,27.00
2017-07-08T13:54:30.714Z,27.30
2017-07-08T13:56:58.145Z,27.20
2017-07-08T13:59:26.352Z,27.40
2017-07-08T14:01:53.777Z,27.40
2017-07-08T14:04:21.246Z,27.50
2017-07-08T14:06:48.690Z,27.60
2017-07-08T14:09:16.129Z,27.40
2017-07-08T14:11:43.564Z,27.40
2017-07-08T14:14:11.018Z,27.50
2017-07-08T14:16:38.492Z,27.70
2017-07-08T14:19:05.921Z,27.80
2017-07-08T14:21:33.357Z,28.00
2017-07-08T14:24:00.916Z,28.20
2017-07-08T14:26:28.483Z,28.30
2017-07-08T14:28:55.893Z,28.30
2017-07-08T14:31:23.329Z,28.30
2017-07-08T14:33:50.765Z,28.30
2017-07-08T14:36:18.250Z,28.30
2017-07-08T14:38:45.777Z,28.30
2017-07-08T14:41:13.246Z,28.10
2017-07-08T14:43:41.474Z,27.60
2017-07-08T14:46:08.904Z,27.60
2017-07-08T14:48:36.366Z,27.20
2017-07-08T14:51:03.893Z,27.10
2017-07-08T14:53:31.340Z,27.00
2017-07-08T14:55:58.795Z,27.00
2017-07-08T14:58:26.217Z,27.10
2017-07-08T15:00:53.675Z,27.20
2017-07-08T15:03:21.123Z,27.40
2017-07-08T15:05:48.557Z,27.70
2017-07-08T15:08:16.001Z,27.90
2017-07-08T15:10:43.432Z,28.20
2017-07-08T15:13:10.941Z,28.30
2017-07-08T15:15:38.476Z,28.40
2017-07-08T15:18:06.696Z,28.70
2017-07-08T15:20:34.150Z,28.70
2017-07-08T15:23:01.590Z,28.80
2017-07-08T15:25:29.017Z,28.80
2017-07-08T15:27:56.476Z,28.60
2017-07-08T15:30:24.024Z,28.50
2017-07-08T15:32:51.477Z,28.30
2017-07-08T15:35:18.952Z,28.30
2017-07-08T15:37:46.404Z,28.10
2017-07-08T15:40:13.848Z,28.30
2017-07-08T15:42:41.385Z,28.40
2017-07-08T15:45:09.478Z,28.50
2017-07-08T15:47:36.927Z,28.60
2017-07-08T15:50:04.358Z,28.60
2017-07-08T15:52:31.815Z,28.70
2017-07-08T15:54:59.250Z,28.70
2017-07-08T15:57:26.770Z,28.70
2017-07-08T15:59:54.192Z,28.70
2017-07-08T16:02:21.668Z,28.60
2017-07-08T16:04:49.099Z,28.50
2017-07-08T16:07:16.581Z,28.40
2017-07-08T16:09:44.125Z,28.30
2017-07-08T16:12:11.639Z,28.00
2017-07-08T16:14:39.107Z,28.00
2017-07-08T16:17:06.560Z,28.20
2017-07-08T16:19:33.992Z,28.20
2017-07-08T16:22:01.427Z,28.30
2017-07-08T16:24:28.956Z,28.30
2017-07-08T16:26:56.390Z,28.40
2017-07-08T16:29:23.873Z,28.50
2017-07-08T16:31:52.141Z,28.50
2017-07-08T16:34:20.343Z,28.60
2017-07-08T16:36:47.787Z,28.50
2017-07-08T16:39:15.219Z,28.70
2017-07-08T16:41:42.656Z,28.70
2017-07-08T16:44:10.090Z,28.70
2017-07-08T16:46:37.541Z,28.60
2017-07-08T16:49:04.964Z,28.70
2017-07-08T16:51:33.216Z,28.60
2017-07-08T16:54:00.618Z,28.70
2017-07-08T16:56:28.954Z,28.70
2017-07-08T16:58:56.399Z,28.70
2017-07-08T17:01:23.829Z,28.60
2017-07-08T17:03:51.310Z,28.60
2017-07-08T17:06:18.742Z,28.60
2017-07-08T17:08:46.226Z,28.50
2017-07-08T17:11:13.658Z,28.50
2017-07-08T17:13:41.104Z,28.50
2017-07-08T17:16:08.574Z,28.40
2017-07-08T17:18:36.808Z,28.30
2017-07-08T17:21:04.248Z,28.30
2017-07-08T17:23:31.682Z,28.30
2017-07-08T17:25:59.125Z,28.30
2017-07-08T17:28:26.565Z,28.10
2017-07-08T17:30:54.026Z,28.10
2017-07-08T17:33:21.466Z,28.00
2017-07-08T17:35:48.919Z,28.00
2017-07-08T17:38:16.381Z,27.90
2017-07-08T17:40:44.571Z,27.90
2017-07-08T17:43:12.013Z,27.80
2017-07-08T17:45:39.499Z,27.80
2017-07-08T17:48:07.049Z,27.60
2017-07-08T17:50:34.482Z,27.60
2017-07-08T17:53:01.928Z,27.60
2017-07-08T17:55:29.373Z,27.60
2017-07-08T17:57:56.912Z,27.60
2017-07-08T18:00:24.461Z,27.60
2017-07-08T18:02:51.895Z,27.60
2017-07-08T18:05:19.457Z,27.70
2017-07-08T18:07:47.002Z,27.60
2017-07-08T18:10:14.444Z,27.40
2017-07-08T18:12:41.885Z,27.30
2017-07-08T18:15:09.426Z,27.20
2017-07-08T18:17:36.868Z,27.20
2017-07-08T18:20:04.408Z,27.20
2017-07-08T18:22:31.863Z,27.20
2017-07-08T18:24:59.313Z,27.10
2017-07-08T18:27:27.520Z,27.10
2017-07-08T18:29:54.997Z,27.10
2017-07-08T18:32:22.477Z,27.00
2017-07-08T18:34:50.678Z,26.90
2017-07-08T18:37:18.132Z,26.90
2017-07-08T18:39:45.624Z,26.90
2017-07-08T18:42:13.868Z,26.90
2017-07-08T18:44:42.112Z,26.90
2017-07-08T18:47:09.587Z,26.90
2017-07-08T18:49:37.817Z,26.80
2017-07-08T18:52:05.250Z,26.80
2017-07-08T18:54:32.689Z,26.80
2017-07-08T18:57:00.150Z,26.70
2017-07-08T18:59:27.686Z,26.60
2017-07-08T19:01:55.126Z,26.60
2017-07-08T19:04:22.583Z,26.50
2017-07-08T19:06:50.016Z,26.40
2017-07-08T19:09:17.448Z,26.40
2017-07-08T19:11:44.900Z,26.30
2017-07-08T19:14:12.345Z,26.30
2017-07-08T19:16:39.901Z,26.20
2017-07-08T19:19:07.336Z,26.20
2017-07-08T19:21:34.849Z,26.10
2017-07-08T19:24:02.341Z,26.00
2017-07-08T19:26:30.587Z,25.80
2017-07-08T19:28:58.125Z,25.80
2017-07-08T19:31:25.685Z,25.70
2017-07-08T19:33:53.189Z,25.70
2017-07-08T19:36:20.620Z,25.60
2017-07-08T19:38:48.056Z,25.50
2017-07-08T19:41:15.497Z,25.30
2017-07-08T19:43:42.954Z,25.10
2017-07-08T19:46:10.431Z,25.00
2017-07-08T19:48:37.907Z,24.90
2017-07-08T19:51:05.347Z,24.80
2017-07-08T19:53:33.612Z,24.50
2017-07-08T19:56:01.833Z,24.40
2017-07-08T19:58:29.260Z,24.40
2017-07-08T20:00:56.702Z,24.30
2017-07-08T20:03:24.144Z,24.20
2017-07-08T20:05:52.381Z,24.20
2017-07-08T20:08:19.821Z,24.20
2017-07-08T20:10:47.257Z,24.20
2017-07-08T20:13:14.709Z,24.20
2017-07-08T20:15:42.158Z,24.20
2017-07-08T20:18:09.610Z,24.20
2017-07-08T20:20:37.042Z,24.20
2017-07-08T20:23:04.482Z,24.10
2017-07-08T20:25:31.904Z,24.10
2017-07-08T20:27:59.349Z,24.00
2017-07-08T20:30:26.813Z,24.00
2017-07-08T20:32:54.253Z,23.90
2017-07-08T20:35:21.718Z,23.90
2017-07-08T20:37:49.916Z,23.80
2017-07-08T20:40:17.369Z,23.80
2017-07-08T20:42:44.907Z,23.90
2017-07-08T20:45:12.345Z,23.90
2017-07-08T20:47:39.777Z,23.90
2017-07-08T20:50:07.248Z,23.80
2017-07-08T20:52:34.723Z,23.90
2017-07-08T20:55:02.156Z,23.90
2017-07-08T20:57:29.589Z,23.90
2017-07-08T20:59:57.150Z,23.90
2017-07-08T21:02:24.696Z,23.90
2017-07-08T21:04:52.250Z,23.80
2017-07-08T21:07:19.689Z,23.80
2017-07-08T21:09:47.128Z,23.80
2017-07-08T21:12:14.680Z,23.80
2017-07-08T21:14:42.114Z,23.80
2017-07-08T21:17:10.357Z,23.70
2017-07-08T21:19:37.789Z,23.70
2017-07-08T21:22:05.245Z,23.70
2017-07-08T21:24:32.682Z,23.70
2017-07-08T21:27:00.112Z,23.70
2017-07-08T21:29:27.601Z,23.70
2017-07-08T21:31:55.158Z,23.70
2017-07-08T21:34:22.697Z,23.70
2017-07-08T21:36:50.124Z,23.70
2017-07-08T21:39:17.556Z,23.60
2017-07-08T21:41:44.990Z,23.60
2017-07-08T21:44:12.436Z,23.60
2017-07-08T21:46:39.866Z,23.60
2017-07-08T21:49:07.320Z,23.60
2017-07-08T21:51:34.765Z,23.60
2017-07-08T21:54:02.220Z,23.50
2017-07-08T21:56:29.765Z,23.40
2017-07-08T21:58:57.197Z,23.40
2017-07-08T22:01:24.633Z,23.40
2017-07-08T22:03:52.104Z,23.30
2017-07-08T22:06:19.548Z,23.30
2017-07-08T22:08:46.992Z,23.30
2017-07-08T22:11:14.429Z,23.30
2017-07-08T22:13:41.864Z,23.30
2017-07-08T22:16:09.297Z,23.30
2017-07-08T22:18:36.728Z,23.30
2017-07-08T22:21:04.170Z,23.30
2017-07-08T22:23:31.968Z,23.30
2017-07-08T22:25:59.435Z,23.30
2017-07-08T22:28:26.915Z,23.30
2017-07-08T22:30:54.376Z,23.30
2017-07-08T22:33:21.859Z,23.30
2017-07-08T22:35:49.319Z,23.30
2017-07-08T22:38:16.819Z,23.20
2017-07-08T22:40:44.359Z,23.20
2017-07-08T22:43:11.844Z,23.20
2017-07-08T22:45:39.310Z,23.20
2017-07-08T22:48:06.790Z,23.10
2017-07-08T22:50:34.367Z,23.10
2017-07-08T22:53:01.906Z,23.10
2017-07-08T22:55:30.140Z,23.10
2017-07-08T22:57:57.602Z,23.10
2017-07-08T23:00:25.876Z,23.00
2017-07-08T23:02:53.374Z,23.00
2017-07-08T23:05:20.889Z,22.90
2017-07-08T23:07:48.394Z,22.80
2017-07-08T23:10:15.867Z,22.70
2017-07-08T23:12:43.334Z,22.60
2017-07-08T23:15:10.802Z,22.60
2017-07-08T23:17:38.271Z,22.50
2017-07-08T23:20:05.727Z,22.50
2017-07-08T23:22:33.198Z,22.40
2017-07-08T23:25:00.763Z,22.40
2017-07-08T23:27:29.004Z,22.30
2017-07-08T23:29:56.599Z,22.30
2017-07-08T23:32:24.076Z,22.30
2017-07-08T23:34:51.558Z,22.20
2017-07-08T23:37:19.798Z,22.00
2017-07-08T23:39:47.498Z,22.00
2017-07-08T23:42:15.015Z,22.10
2017-07-08T23:44:42.755Z,22.20
2017-07-08T23:47:10.992Z,22.20
2017-07-08T23:49:38.475Z,22.20
2017-07-08T23:52:05.934Z,22.20
2017-07-08T23:54:33.414Z,22.20
2017-07-08T23:57:00.880Z,22.20
2017-07-08T23:59:28.442Z,22.30
